sensor_id;sensor_type;location;lat;lon;timestamp;P1;durP1;ratioP1;P2;durP2;ratioP2
65822;SDS011;52585;47.566;19.056;2022-07-06T00:01:10;3.00;;;2.70;;
65822;SDS011;52585;47.566;19.056;2022-07-06T00:03:36;3.00;;;2.70;;
65822;SDS011;52585;47.566;19.056;2022-07-06T00:06:02;2.80;;;2.50;;
65822;SDS011;52585;47.566;19.056;2022-07-06T00:08:28;4.00;;;2.30;;
65822;SDS011;52585;47.566;19.056;2022-07-06T00:10:58;2.70;;;2.20;;
65822;SDS011;52585;47.566;19.056;2022-07-06T00:13:25;2.50;;;2.30;;
65822;SDS011;52585;47.566;19.056;2022-07-06T00:15:54;3.90;;;2.50;;
65822;SDS011;52585;47.566;19.056;2022-07-06T00:18:21;3.20;;;2.40;;
65822;SDS011;52585;47.566;19.056;2022-07-06T00:20:49;2.70;;;2.60;;
65822;SDS011;52585;47.566;19.056;2022-07-06T00:23:18;2.60;;;2.30;;
65822;SDS011;52585;47.566;19.056;2022-07-06T00:25:46;5.30;;;2.50;;
65822;SDS011;52585;47.566;19.056;2022-07-06T00:28:15;3.40;;;2.80;;
65822;SDS011;52585;47.566;19.056;2022-07-06T00:30:43;2.50;;;2.30;;
65822;SDS011;52585;47.566;19.056;2022-07-06T00:33:13;4.10;;;2.40;;
65822;SDS011;52585;47.566;19.056;2022-07-06T00:35:40;2.60;;;2.40;;
65822;SDS011;52585;47.566;19.056;2022-07-06T00:38:06;3.50;;;2.20;;
65822;SDS011;52585;47.566;19.056;2022-07-06T00:40:35;3.80;;;2.30;;
65822;SDS011;52585;47.566;19.056;2022-07-06T00:43:01;3.00;;;2.40;;
65822;SDS011;52585;47.566;19.056;2022-07-06T00:45:28;4.80;;;2.40;;
65822;SDS011;52585;47.566;19.056;2022-07-06T00:47:55;2.70;;;2.20;;
65822;SDS011;52585;47.566;19.056;2022-07-06T00:50:24;3.60;;;2.20;;
65822;SDS011;52585;47.566;19.056;2022-07-06T00:52:55;5.60;;;2.30;;
65822;SDS011;52585;47.566;19.056;2022-07-06T00:55:26;2.50;;;2.20;;
65822;SDS011;52585;47.566;19.056;2022-07-06T00:57:55;3.50;;;2.20;;
65822;SDS011;52585;47.566;19.056;2022-07-06T01:00:25;4.70;;;2.40;;
65822;SDS011;52585;47.566;19.056;2022-07-06T01:02:53;7.20;;;2.20;;
65822;SDS011;52585;47.566;19.056;2022-07-06T01:05:21;3.60;;;2.00;;
65822;SDS011;52585;47.566;19.056;2022-07-06T01:07:50;5.10;;;2.30;;
65822;SDS011;52585;47.566;19.056;2022-07-06T01:10:18;2.40;;;2.10;;
65822;SDS011;52585;47.566;19.056;2022-07-06T01:12:46;4.70;;;2.60;;
65822;SDS011;52585;47.566;19.056;2022-07-06T01:15:20;2.60;;;2.40;;
65822;SDS011;52585;47.566;19.056;2022-07-06T01:17:48;2.90;;;2.30;;
65822;SDS011;52585;47.566;19.056;2022-07-06T01:20:18;2.80;;;2.30;;
65822;SDS011;52585;47.566;19.056;2022-07-06T01:22:51;6.90;;;2.40;;
65822;SDS011;52585;47.566;19.056;2022-07-06T01:25:18;5.50;;;2.20;;
65822;SDS011;52585;47.566;19.056;2022-07-06T01:27:46;2.60;;;2.40;;
65822;SDS011;52585;47.566;19.056;2022-07-06T01:30:16;4.20;;;2.50;;
65822;SDS011;52585;47.566;19.056;2022-07-06T01:32:45;5.50;;;2.60;;
65822;SDS011;52585;47.566;19.056;2022-07-06T01:35:13;2.60;;;2.30;;
65822;SDS011;52585;47.566;19.056;2022-07-06T01:37:42;4.50;;;2.00;;
65822;SDS011;52585;47.566;19.056;2022-07-06T01:40:10;3.00;;;2.10;;
65822;SDS011;52585;47.566;19.056;2022-07-06T01:42:38;5.50;;;2.70;;
65822;SDS011;52585;47.566;19.056;2022-07-06T01:45:06;4.60;;;2.20;;
65822;SDS011;52585;47.566;19.056;2022-07-06T01:47:35;3.40;;;2.40;;
65822;SDS011;52585;47.566;19.056;2022-07-06T01:50:06;3.30;;;2.30;;
65822;SDS011;52585;47.566;19.056;2022-07-06T01:52:34;4.90;;;2.50;;
65822;SDS011;52585;47.566;19.056;2022-07-06T01:55:02;3.00;;;2.50;;
65822;SDS011;52585;47.566;19.056;2022-07-06T01:57:29;3.40;;;2.70;;
65822;SDS011;52585;47.566;19.056;2022-07-06T01:59:56;2.70;;;2.50;;
65822;SDS011;52585;47.566;19.056;2022-07-06T02:02:23;5.60;;;2.80;;
65822;SDS011;52585;47.566;19.056;2022-07-06T02:04:50;4.20;;;2.70;;
65822;SDS011;52585;47.566;19.056;2022-07-06T02:07:16;3.20;;;2.50;;
65822;SDS011;52585;47.566;19.056;2022-07-06T02:09:43;3.30;;;1.90;;
65822;SDS011;52585;47.566;19.056;2022-07-06T02:12:11;3.40;;;2.40;;
65822;SDS011;52585;47.566;19.056;2022-07-06T02:14:39;5.20;;;2.40;;
65822;SDS011;52585;47.566;19.056;2022-07-06T02:17:07;2.70;;;2.50;;
65822;SDS011;52585;47.566;19.056;2022-07-06T02:19:34;4.60;;;3.00;;
65822;SDS011;52585;47.566;19.056;2022-07-06T02:22:02;5.20;;;2.80;;
65822;SDS011;52585;47.566;19.056;2022-07-06T02:24:29;4.70;;;3.20;;
65822;SDS011;52585;47.566;19.056;2022-07-06T02:26:57;4.40;;;2.70;;
65822;SDS011;52585;47.566;19.056;2022-07-06T02:29:25;3.00;;;2.80;;
65822;SDS011;52585;47.566;19.056;2022-07-06T02:31:54;3.30;;;2.80;;
65822;SDS011;52585;47.566;19.056;2022-07-06T02:34:22;8.00;;;3.00;;
65822;SDS011;52585;47.566;19.056;2022-07-06T02:36:49;5.70;;;2.80;;
65822;SDS011;52585;47.566;19.056;2022-07-06T02:39:18;2.90;;;2.60;;
65822;SDS011;52585;47.566;19.056;2022-07-06T02:41:44;3.50;;;2.70;;
65822;SDS011;52585;47.566;19.056;2022-07-06T02:44:12;4.60;;;2.60;;
65822;SDS011;52585;47.566;19.056;2022-07-06T02:46:40;4.60;;;3.10;;
65822;SDS011;52585;47.566;19.056;2022-07-06T02:49:07;6.90;;;3.10;;
65822;SDS011;52585;47.566;19.056;2022-07-06T02:51:33;5.60;;;2.90;;
65822;SDS011;52585;47.566;19.056;2022-07-06T02:54:00;3.20;;;2.90;;
65822;SDS011;52585;47.566;19.056;2022-07-06T02:56:28;3.40;;;3.00;;
65822;SDS011;52585;47.566;19.056;2022-07-06T02:58:56;3.90;;;3.20;;
65822;SDS011;52585;47.566;19.056;2022-07-06T03:01:23;3.70;;;3.20;;
65822;SDS011;52585;47.566;19.056;2022-07-06T03:03:50;3.90;;;2.90;;
65822;SDS011;52585;47.566;19.056;2022-07-06T03:06:19;3.30;;;3.00;;
65822;SDS011;52585;47.566;19.056;2022-07-06T03:08:45;5.60;;;3.30;;
65822;SDS011;52585;47.566;19.056;2022-07-06T03:11:13;3.80;;;2.90;;
65822;SDS011;52585;47.566;19.056;2022-07-06T03:13:40;3.40;;;3.00;;
65822;SDS011;52585;47.566;19.056;2022-07-06T03:16:08;4.30;;;3.60;;
65822;SDS011;52585;47.566;19.056;2022-07-06T03:18:35;4.20;;;3.00;;
65822;SDS011;52585;47.566;19.056;2022-07-06T03:21:03;3.60;;;3.20;;
65822;SDS011;52585;47.566;19.056;2022-07-06T03:23:31;5.30;;;3.00;;
65822;SDS011;52585;47.566;19.056;2022-07-06T03:26:00;3.90;;;3.20;;
65822;SDS011;52585;47.566;19.056;2022-07-06T03:28:26;4.10;;;3.50;;
65822;SDS011;52585;47.566;19.056;2022-07-06T03:30:52;5.20;;;3.30;;
65822;SDS011;52585;47.566;19.056;2022-07-06T03:33:17;3.60;;;3.20;;
65822;SDS011;52585;47.566;19.056;2022-07-06T03:35:43;3.70;;;3.20;;
65822;SDS011;52585;47.566;19.056;2022-07-06T03:38:09;5.10;;;3.60;;
65822;SDS011;52585;47.566;19.056;2022-07-06T03:40:34;3.00;;;2.80;;
65822;SDS011;52585;47.566;19.056;2022-07-06T03:43:00;4.70;;;3.00;;
65822;SDS011;52585;47.566;19.056;2022-07-06T03:45:25;5.10;;;3.60;;
65822;SDS011;52585;47.566;19.056;2022-07-06T03:47:51;3.60;;;3.30;;
65822;SDS011;52585;47.566;19.056;2022-07-06T03:50:17;3.80;;;3.10;;
65822;SDS011;52585;47.566;19.056;2022-07-06T03:52:42;5.10;;;3.30;;
65822;SDS011;52585;47.566;19.056;2022-07-06T03:55:11;5.50;;;3.40;;
65822;SDS011;52585;47.566;19.056;2022-07-06T03:57:37;5.40;;;3.50;;
65822;SDS011;52585;47.566;19.056;2022-07-06T04:00:07;4.40;;;3.20;;
65822;SDS011;52585;47.566;19.056;2022-07-06T04:02:33;4.20;;;3.00;;
65822;SDS011;52585;47.566;19.056;2022-07-06T04:04:59;3.70;;;2.80;;
65822;SDS011;52585;47.566;19.056;2022-07-06T04:07:25;3.60;;;3.30;;
65822;SDS011;52585;47.566;19.056;2022-07-06T04:09:51;3.60;;;3.20;;
65822;SDS011;52585;47.566;19.056;2022-07-06T04:12:17;4.80;;;3.20;;
65822;SDS011;52585;47.566;19.056;2022-07-06T04:14:43;5.20;;;2.90;;
65822;SDS011;52585;47.566;19.056;2022-07-06T04:17:09;3.50;;;3.10;;
65822;SDS011;52585;47.566;19.056;2022-07-06T04:20:08;3.10;;;2.80;;
65822;SDS011;52585;47.566;19.056;2022-07-06T04:22:40;3.30;;;3.10;;
65822;SDS011;52585;47.566;19.056;2022-07-06T04:25:06;4.90;;;2.70;;
65822;SDS011;52585;47.566;19.056;2022-07-06T04:27:32;5.00;;;3.10;;
65822;SDS011;52585;47.566;19.056;2022-07-06T04:29:58;3.50;;;2.90;;
65822;SDS011;52585;47.566;19.056;2022-07-06T04:32:23;3.80;;;2.60;;
65822;SDS011;52585;47.566;19.056;2022-07-06T04:34:49;4.70;;;2.80;;
65822;SDS011;52585;47.566;19.056;2022-07-06T04:37:14;3.20;;;2.60;;
65822;SDS011;52585;47.566;19.056;2022-07-06T04:39:40;6.10;;;3.00;;
65822;SDS011;52585;47.566;19.056;2022-07-06T04:42:05;5.10;;;2.40;;
65822;SDS011;52585;47.566;19.056;2022-07-06T04:44:31;3.90;;;3.20;;
65822;SDS011;52585;47.566;19.056;2022-07-06T04:46:57;3.60;;;3.00;;
65822;SDS011;52585;47.566;19.056;2022-07-06T04:49:23;4.20;;;3.00;;
65822;SDS011;52585;47.566;19.056;2022-07-06T04:51:49;3.70;;;3.00;;
65822;SDS011;52585;47.566;19.056;2022-07-06T04:54:14;4.10;;;2.50;;
65822;SDS011;52585;47.566;19.056;2022-07-06T04:56:40;3.00;;;2.70;;
65822;SDS011;52585;47.566;19.056;2022-07-06T04:59:06;4.80;;;2.60;;
65822;SDS011;52585;47.566;19.056;2022-07-06T05:01:32;2.90;;;2.60;;
65822;SDS011;52585;47.566;19.056;2022-07-06T05:03:57;4.90;;;3.10;;
65822;SDS011;52585;47.566;19.056;2022-07-06T05:06:23;3.60;;;2.70;;
65822;SDS011;52585;47.566;19.056;2022-07-06T05:08:48;7.30;;;3.10;;
65822;SDS011;52585;47.566;19.056;2022-07-06T05:11:14;3.50;;;2.80;;
65822;SDS011;52585;47.566;19.056;2022-07-06T05:13:40;6.90;;;3.20;;
65822;SDS011;52585;47.566;19.056;2022-07-06T05:16:06;3.80;;;3.00;;
65822;SDS011;52585;47.566;19.056;2022-07-06T05:18:31;4.00;;;2.60;;
65822;SDS011;52585;47.566;19.056;2022-07-06T05:20:57;4.30;;;3.00;;
65822;SDS011;52585;47.566;19.056;2022-07-06T05:23:24;3.80;;;2.90;;
65822;SDS011;52585;47.566;19.056;2022-07-06T05:25:49;2.60;;;2.40;;
65822;SDS011;52585;47.566;19.056;2022-07-06T05:28:15;3.70;;;2.60;;
65822;SDS011;52585;47.566;19.056;2022-07-06T05:30:41;3.20;;;2.70;;
65822;SDS011;52585;47.566;19.056;2022-07-06T05:33:06;3.60;;;2.60;;
65822;SDS011;52585;47.566;19.056;2022-07-06T05:35:32;4.60;;;3.10;;
65822;SDS011;52585;47.566;19.056;2022-07-06T05:37:57;3.30;;;3.00;;
65822;SDS011;52585;47.566;19.056;2022-07-06T05:40:23;8.30;;;3.00;;
65822;SDS011;52585;47.566;19.056;2022-07-06T05:42:49;4.00;;;2.80;;
65822;SDS011;52585;47.566;19.056;2022-07-06T05:45:15;7.00;;;3.20;;
65822;SDS011;52585;47.566;19.056;2022-07-06T05:47:40;4.50;;;2.90;;
65822;SDS011;52585;47.566;19.056;2022-07-06T05:50:25;3.10;;;2.50;;
65822;SDS011;52585;47.566;19.056;2022-07-06T05:53:01;3.70;;;2.60;;
65822;SDS011;52585;47.566;19.056;2022-07-06T05:55:28;4.20;;;2.90;;
65822;SDS011;52585;47.566;19.056;2022-07-06T05:57:54;3.90;;;3.00;;
65822;SDS011;52585;47.566;19.056;2022-07-06T06:00:22;4.40;;;3.00;;
65822;SDS011;52585;47.566;19.056;2022-07-06T06:02:50;2.90;;;2.70;;
65822;SDS011;52585;47.566;19.056;2022-07-06T06:05:17;5.10;;;3.20;;
65822;SDS011;52585;47.566;19.056;2022-07-06T06:07:44;3.30;;;3.00;;
65822;SDS011;52585;47.566;19.056;2022-07-06T06:10:13;3.40;;;2.90;;
65822;SDS011;52585;47.566;19.056;2022-07-06T06:12:41;4.10;;;3.10;;
65822;SDS011;52585;47.566;19.056;2022-07-06T06:15:09;3.20;;;2.80;;
65822;SDS011;52585;47.566;19.056;2022-07-06T06:17:36;3.50;;;3.10;;
65822;SDS011;52585;47.566;19.056;2022-07-06T06:20:04;3.10;;;2.80;;
65822;SDS011;52585;47.566;19.056;2022-07-06T06:22:43;4.60;;;3.10;;
65822;SDS011;52585;47.566;19.056;2022-07-06T06:25:17;5.40;;;2.80;;
65822;SDS011;52585;47.566;19.056;2022-07-06T06:27:52;4.20;;;2.90;;
65822;SDS011;52585;47.566;19.056;2022-07-06T06:30:18;4.40;;;3.40;;
65822;SDS011;52585;47.566;19.056;2022-07-06T06:32:44;5.00;;;3.40;;
65822;SDS011;52585;47.566;19.056;2022-07-06T06:35:10;5.60;;;3.10;;
65822;SDS011;52585;47.566;19.056;2022-07-06T06:37:36;9.60;;;3.40;;
65822;SDS011;52585;47.566;19.056;2022-07-06T06:40:03;4.30;;;3.50;;
65822;SDS011;52585;47.566;19.056;2022-07-06T06:42:30;3.90;;;3.50;;
65822;SDS011;52585;47.566;19.056;2022-07-06T06:44:56;5.50;;;3.30;;
65822;SDS011;52585;47.566;19.056;2022-07-06T06:47:22;6.60;;;3.50;;
65822;SDS011;52585;47.566;19.056;2022-07-06T06:49:49;3.70;;;3.40;;
65822;SDS011;52585;47.566;19.056;2022-07-06T06:52:14;3.40;;;3.20;;
65822;SDS011;52585;47.566;19.056;2022-07-06T06:54:40;6.60;;;3.30;;
65822;SDS011;52585;47.566;19.056;2022-07-06T06:57:06;4.30;;;3.30;;
65822;SDS011;52585;47.566;19.056;2022-07-06T06:59:31;5.80;;;3.40;;
65822;SDS011;52585;47.566;19.056;2022-07-06T07:01:57;3.80;;;3.50;;
65822;SDS011;52585;47.566;19.056;2022-07-06T07:04:23;5.70;;;2.70;;
65822;SDS011;52585;47.566;19.056;2022-07-06T07:06:49;4.30;;;3.60;;
65822;SDS011;52585;47.566;19.056;2022-07-06T07:09:15;3.60;;;3.10;;
65822;SDS011;52585;47.566;19.056;2022-07-06T07:11:40;5.30;;;3.50;;
65822;SDS011;52585;47.566;19.056;2022-07-06T07:14:06;5.30;;;3.30;;
65822;SDS011;52585;47.566;19.056;2022-07-06T07:16:32;3.50;;;3.30;;
65822;SDS011;52585;47.566;19.056;2022-07-06T07:18:58;4.20;;;3.20;;
65822;SDS011;52585;47.566;19.056;2022-07-06T07:21:23;6.50;;;3.60;;
65822;SDS011;52585;47.566;19.056;2022-07-06T07:23:49;4.80;;;3.70;;
65822;SDS011;52585;47.566;19.056;2022-07-06T07:26:16;7.20;;;3.90;;
65822;SDS011;52585;47.566;19.056;2022-07-06T07:28:42;4.40;;;3.20;;
65822;SDS011;52585;47.566;19.056;2022-07-06T07:31:07;3.50;;;3.30;;
65822;SDS011;52585;47.566;19.056;2022-07-06T07:33:34;4.40;;;2.80;;
65822;SDS011;52585;47.566;19.056;2022-07-06T07:36:12;6.20;;;3.00;;
65822;SDS011;52585;47.566;19.056;2022-07-06T07:38:37;3.00;;;2.80;;
65822;SDS011;52585;47.566;19.056;2022-07-06T07:41:03;6.00;;;3.00;;
65822;SDS011;52585;47.566;19.056;2022-07-06T07:43:30;3.30;;;2.70;;
65822;SDS011;52585;47.566;19.056;2022-07-06T07:45:56;2.80;;;2.60;;
65822;SDS011;52585;47.566;19.056;2022-07-06T07:48:22;2.90;;;2.30;;
65822;SDS011;52585;47.566;19.056;2022-07-06T07:50:47;2.50;;;2.30;;
65822;SDS011;52585;47.566;19.056;2022-07-06T07:53:16;2.50;;;2.40;;
65822;SDS011;52585;47.566;19.056;2022-07-06T07:55:41;2.30;;;2.10;;
65822;SDS011;52585;47.566;19.056;2022-07-06T07:58:07;2.40;;;2.30;;
65822;SDS011;52585;47.566;19.056;2022-07-06T08:00:33;3.50;;;2.20;;
65822;SDS011;52585;47.566;19.056;2022-07-06T08:03:07;1.90;;;1.80;;
65822;SDS011;52585;47.566;19.056;2022-07-06T08:05:32;3.70;;;1.90;;
65822;SDS011;52585;47.566;19.056;2022-07-06T08:07:58;1.90;;;1.80;;
65822;SDS011;52585;47.566;19.056;2022-07-06T08:10:24;2.50;;;2.10;;
65822;SDS011;52585;47.566;19.056;2022-07-06T08:12:49;2.20;;;2.00;;
65822;SDS011;52585;47.566;19.056;2022-07-06T08:15:15;2.90;;;2.00;;
65822;SDS011;52585;47.566;19.056;2022-07-06T08:17:41;1.70;;;1.60;;
65822;SDS011;52585;47.566;19.056;2022-07-06T08:20:07;2.40;;;1.70;;
65822;SDS011;52585;47.566;19.056;2022-07-06T08:22:35;3.30;;;1.80;;
65822;SDS011;52585;47.566;19.056;2022-07-06T08:25:01;3.50;;;1.70;;
65822;SDS011;52585;47.566;19.056;2022-07-06T08:27:28;1.80;;;1.70;;
65822;SDS011;52585;47.566;19.056;2022-07-06T08:29:53;1.80;;;1.70;;
65822;SDS011;52585;47.566;19.056;2022-07-06T08:32:19;2.10;;;1.70;;
65822;SDS011;52585;47.566;19.056;2022-07-06T08:34:46;2.40;;;1.40;;
65822;SDS011;52585;47.566;19.056;2022-07-06T08:37:12;2.70;;;1.50;;
65822;SDS011;52585;47.566;19.056;2022-07-06T08:39:38;1.70;;;1.60;;
65822;SDS011;52585;47.566;19.056;2022-07-06T08:42:07;1.50;;;1.40;;
65822;SDS011;52585;47.566;19.056;2022-07-06T08:44:36;1.90;;;1.60;;
65822;SDS011;52585;47.566;19.056;2022-07-06T08:47:05;2.50;;;1.60;;
65822;SDS011;52585;47.566;19.056;2022-07-06T08:49:34;1.70;;;1.60;;
65822;SDS011;52585;47.566;19.056;2022-07-06T08:52:03;1.80;;;1.70;;
65822;SDS011;52585;47.566;19.056;2022-07-06T08:54:29;2.90;;;1.70;;
65822;SDS011;52585;47.566;19.056;2022-07-06T08:56:55;2.80;;;2.00;;
65822;SDS011;52585;47.566;19.056;2022-07-06T08:59:21;1.90;;;1.80;;
65822;SDS011;52585;47.566;19.056;2022-07-06T09:01:47;2.00;;;1.90;;
65822;SDS011;52585;47.566;19.056;2022-07-06T09:04:16;2.10;;;1.90;;
65822;SDS011;52585;47.566;19.056;2022-07-06T09:06:46;2.00;;;1.90;;
65822;SDS011;52585;47.566;19.056;2022-07-06T09:09:19;1.90;;;1.80;;
65822;SDS011;52585;47.566;19.056;2022-07-06T09:11:49;2.20;;;2.10;;
65822;SDS011;52585;47.566;19.056;2022-07-06T09:14:17;4.50;;;2.40;;
65822;SDS011;52585;47.566;19.056;2022-07-06T09:16:45;2.70;;;2.40;;
65822;SDS011;52585;47.566;19.056;2022-07-06T09:19:12;3.10;;;2.20;;
65822;SDS011;52585;47.566;19.056;2022-07-06T09:21:39;2.40;;;2.20;;
65822;SDS011;52585;47.566;19.056;2022-07-06T09:24:09;2.20;;;2.00;;
65822;SDS011;52585;47.566;19.056;2022-07-06T09:26:36;2.60;;;2.40;;
65822;SDS011;52585;47.566;19.056;2022-07-06T09:29:03;2.40;;;2.10;;
65822;SDS011;52585;47.566;19.056;2022-07-06T09:31:29;2.20;;;2.00;;
65822;SDS011;52585;47.566;19.056;2022-07-06T09:41:49;4.90;;;2.30;;
65822;SDS011;52585;47.566;19.056;2022-07-06T09:44:23;5.60;;;2.30;;
65822;SDS011;52585;47.566;19.056;2022-07-06T09:46:56;3.60;;;2.30;;
65822;SDS011;52585;47.566;19.056;2022-07-06T09:49:25;3.80;;;2.60;;
65822;SDS011;52585;47.566;19.056;2022-07-06T09:51:54;2.30;;;2.10;;
65822;SDS011;52585;47.566;19.056;2022-07-06T09:54:21;2.50;;;2.40;;
65822;SDS011;52585;47.566;19.056;2022-07-06T09:56:49;3.30;;;2.60;;
65822;SDS011;52585;47.566;19.056;2022-07-06T09:59:20;2.80;;;2.30;;
65822;SDS011;52585;47.566;19.056;2022-07-06T10:02:04;3.00;;;2.30;;
65822;SDS011;52585;47.566;19.056;2022-07-06T10:04:34;4.20;;;2.30;;
65822;SDS011;52585;47.566;19.056;2022-07-06T10:07:01;2.70;;;2.50;;
65822;SDS011;52585;47.566;19.056;2022-07-06T10:09:29;5.60;;;2.30;;
65822;SDS011;52585;47.566;19.056;2022-07-06T10:12:01;2.60;;;2.40;;
65822;SDS011;52585;47.566;19.056;2022-07-06T10:14:33;4.30;;;2.30;;
65822;SDS011;52585;47.566;19.056;2022-07-06T10:17:01;7.30;;;3.20;;
65822;SDS011;52585;47.566;19.056;2022-07-06T10:22:03;3.50;;;2.80;;
65822;SDS011;52585;47.566;19.056;2022-07-06T10:24:30;45.70;;;12.60;;
65822;SDS011;52585;47.566;19.056;2022-07-06T10:27:05;34.30;;;10.50;;
65822;SDS011;52585;47.566;19.056;2022-07-06T10:29:34;65.00;;;19.20;;
65822;SDS011;52585;47.566;19.056;2022-07-06T10:32:00;55.70;;;15.00;;
65822;SDS011;52585;47.566;19.056;2022-07-06T10:34:29;32.60;;;12.00;;
65822;SDS011;52585;47.566;19.056;2022-07-06T10:36:55;17.70;;;7.20;;
65822;SDS011;52585;47.566;19.056;2022-07-06T10:39:38;28.70;;;9.50;;
65822;SDS011;52585;47.566;19.056;2022-07-06T10:42:49;14.60;;;6.50;;
65822;SDS011;52585;47.566;19.056;2022-07-06T10:53:27;9.30;;;3.20;;
65822;SDS011;52585;47.566;19.056;2022-07-06T10:55:56;3.50;;;2.70;;
65822;SDS011;52585;47.566;19.056;2022-07-06T10:58:48;6.80;;;4.00;;
65822;SDS011;52585;47.566;19.056;2022-07-06T11:01:16;11.00;;;4.90;;
65822;SDS011;52585;47.566;19.056;2022-07-06T11:03:50;10.30;;;5.30;;
65822;SDS011;52585;47.566;19.056;2022-07-06T11:06:37;4.20;;;3.00;;
65822;SDS011;52585;47.566;19.056;2022-07-06T11:09:09;5.90;;;3.30;;
65822;SDS011;52585;47.566;19.056;2022-07-06T11:14:05;3.90;;;2.80;;
65822;SDS011;52585;47.566;19.056;2022-07-06T11:16:40;4.30;;;3.30;;
65822;SDS011;52585;47.566;19.056;2022-07-06T11:19:29;8.30;;;3.40;;
65822;SDS011;52585;47.566;19.056;2022-07-06T11:22:06;5.00;;;3.10;;
65822;SDS011;52585;47.566;19.056;2022-07-06T11:24:36;3.30;;;2.70;;
65822;SDS011;52585;47.566;19.056;2022-07-06T11:27:04;8.40;;;3.00;;
65822;SDS011;52585;47.566;19.056;2022-07-06T11:29:33;6.30;;;2.80;;
65822;SDS011;52585;47.566;19.056;2022-07-06T11:32:01;2.60;;;2.40;;
65822;SDS011;52585;47.566;19.056;2022-07-06T11:34:31;3.10;;;2.10;;
65822;SDS011;52585;47.566;19.056;2022-07-06T11:37:07;5.10;;;2.70;;
65822;SDS011;52585;47.566;19.056;2022-07-06T11:39:40;6.10;;;2.50;;
65822;SDS011;52585;47.566;19.056;2022-07-06T11:42:08;3.50;;;2.40;;
65822;SDS011;52585;47.566;19.056;2022-07-06T11:44:35;5.50;;;2.60;;
65822;SDS011;52585;47.566;19.056;2022-07-06T11:47:04;6.00;;;2.50;;
65822;SDS011;52585;47.566;19.056;2022-07-06T11:49:31;3.00;;;2.70;;
65822;SDS011;52585;47.566;19.056;2022-07-06T11:51:58;3.60;;;2.70;;
65822;SDS011;52585;47.566;19.056;2022-07-06T11:54:25;8.30;;;3.00;;
65822;SDS011;52585;47.566;19.056;2022-07-06T11:56:57;2.90;;;2.70;;
65822;SDS011;52585;47.566;19.056;2022-07-06T11:59:35;3.90;;;2.40;;
65822;SDS011;52585;47.566;19.056;2022-07-06T12:02:03;3.00;;;2.70;;
65822;SDS011;52585;47.566;19.056;2022-07-06T12:04:31;2.70;;;2.50;;
65822;SDS011;52585;47.566;19.056;2022-07-06T12:07:06;2.70;;;2.50;;
65822;SDS011;52585;47.566;19.056;2022-07-06T12:09:35;4.50;;;2.40;;
65822;SDS011;52585;47.566;19.056;2022-07-06T12:12:04;2.70;;;2.50;;
65822;SDS011;52585;47.566;19.056;2022-07-06T12:14:32;3.50;;;2.30;;
65822;SDS011;52585;47.566;19.056;2022-07-06T12:17:07;2.80;;;2.50;;
65822;SDS011;52585;47.566;19.056;2022-07-06T12:19:38;4.30;;;2.60;;
65822;SDS011;52585;47.566;19.056;2022-07-06T12:22:05;3.00;;;2.70;;
65822;SDS011;52585;47.566;19.056;2022-07-06T12:24:33;2.90;;;2.70;;
65822;SDS011;52585;47.566;19.056;2022-07-06T12:27:18;4.70;;;2.80;;
65822;SDS011;52585;47.566;19.056;2022-07-06T12:29:46;4.00;;;2.30;;
65822;SDS011;52585;47.566;19.056;2022-07-06T12:32:18;3.00;;;2.30;;
65822;SDS011;52585;47.566;19.056;2022-07-06T12:34:45;3.60;;;2.50;;
65822;SDS011;52585;47.566;19.056;2022-07-06T12:37:11;2.60;;;2.40;;
65822;SDS011;52585;47.566;19.056;2022-07-06T12:39:46;3.10;;;2.40;;
65822;SDS011;52585;47.566;19.056;2022-07-06T12:42:17;3.90;;;2.60;;
65822;SDS011;52585;47.566;19.056;2022-07-06T12:44:48;2.90;;;2.30;;
65822;SDS011;52585;47.566;19.056;2022-07-06T12:47:18;8.70;;;2.50;;
65822;SDS011;52585;47.566;19.056;2022-07-06T12:49:46;3.00;;;2.40;;
65822;SDS011;52585;47.566;19.056;2022-07-06T12:52:13;4.50;;;1.90;;
65822;SDS011;52585;47.566;19.056;2022-07-06T12:54:45;7.10;;;2.80;;
65822;SDS011;52585;47.566;19.056;2022-07-06T12:59:56;3.80;;;2.00;;
65822;SDS011;52585;47.566;19.056;2022-07-06T13:02:29;2.00;;;1.90;;
65822;SDS011;52585;47.566;19.056;2022-07-06T13:05:08;7.60;;;2.40;;
65822;SDS011;52585;47.566;19.056;2022-07-06T13:07:37;7.00;;;2.00;;
65822;SDS011;52585;47.566;19.056;2022-07-06T13:10:08;5.70;;;2.20;;
65822;SDS011;52585;47.566;19.056;2022-07-06T13:12:36;4.10;;;2.10;;
65822;SDS011;52585;47.566;19.056;2022-07-06T13:15:04;4.90;;;2.00;;
65822;SDS011;52585;47.566;19.056;2022-07-06T13:17:32;6.50;;;1.90;;
65822;SDS011;52585;47.566;19.056;2022-07-06T13:19:59;1.80;;;1.70;;
65822;SDS011;52585;47.566;19.056;2022-07-06T13:22:26;2.50;;;1.60;;
65822;SDS011;52585;47.566;19.056;2022-07-06T13:24:53;3.90;;;1.80;;
65822;SDS011;52585;47.566;19.056;2022-07-06T13:27:21;2.70;;;1.90;;
65822;SDS011;52585;47.566;19.056;2022-07-06T13:29:47;1.90;;;1.80;;
65822;SDS011;52585;47.566;19.056;2022-07-06T13:32:13;5.20;;;1.90;;
65822;SDS011;52585;47.566;19.056;2022-07-06T13:34:39;2.40;;;2.20;;
65822;SDS011;52585;47.566;19.056;2022-07-06T13:37:05;4.40;;;2.10;;
65822;SDS011;52585;47.566;19.056;2022-07-06T13:39:32;2.40;;;1.80;;
65822;SDS011;52585;47.566;19.056;2022-07-06T13:41:59;4.80;;;2.30;;
65822;SDS011;52585;47.566;19.056;2022-07-06T13:44:26;4.50;;;2.10;;
65822;SDS011;52585;47.566;19.056;2022-07-06T13:46:53;4.70;;;2.30;;
65822;SDS011;52585;47.566;19.056;2022-07-06T13:49:20;3.80;;;2.10;;
65822;SDS011;52585;47.566;19.056;2022-07-06T13:51:47;5.10;;;2.10;;
65822;SDS011;52585;47.566;19.056;2022-07-06T13:54:16;2.70;;;2.10;;
65822;SDS011;52585;47.566;19.056;2022-07-06T13:56:42;4.90;;;2.10;;
65822;SDS011;52585;47.566;19.056;2022-07-06T13:59:08;4.10;;;2.00;;
65822;SDS011;52585;47.566;19.056;2022-07-06T14:01:35;5.00;;;1.90;;
65822;SDS011;52585;47.566;19.056;2022-07-06T14:04:06;3.50;;;1.90;;
65822;SDS011;52585;47.566;19.056;2022-07-06T14:06:33;3.80;;;1.70;;
65822;SDS011;52585;47.566;19.056;2022-07-06T14:09:00;7.70;;;2.00;;
65822;SDS011;52585;47.566;19.056;2022-07-06T14:11:27;3.40;;;1.80;;
65822;SDS011;52585;47.566;19.056;2022-07-06T14:13:58;3.50;;;1.70;;
65822;SDS011;52585;47.566;19.056;2022-07-06T14:16:25;1.80;;;1.70;;
65822;SDS011;52585;47.566;19.056;2022-07-06T14:18:52;1.60;;;1.50;;
65822;SDS011;52585;47.566;19.056;2022-07-06T14:21:21;2.20;;;1.60;;
65822;SDS011;52585;47.566;19.056;2022-07-06T14:23:53;5.30;;;1.70;;
65822;SDS011;52585;47.566;19.056;2022-07-06T14:26:20;3.70;;;1.70;;
65822;SDS011;52585;47.566;19.056;2022-07-06T14:28:48;4.70;;;1.60;;
65822;SDS011;52585;47.566;19.056;2022-07-06T14:31:16;3.10;;;1.60;;
65822;SDS011;52585;47.566;19.056;2022-07-06T14:33:51;4.20;;;1.60;;
65822;SDS011;52585;47.566;19.056;2022-07-06T14:36:18;1.70;;;1.60;;
65822;SDS011;52585;47.566;19.056;2022-07-06T14:38:47;3.40;;;1.80;;
65822;SDS011;52585;47.566;19.056;2022-07-06T14:41:16;3.60;;;1.90;;
65822;SDS011;52585;47.566;19.056;2022-07-06T14:43:43;4.20;;;1.70;;
65822;SDS011;52585;47.566;19.056;2022-07-06T14:46:10;6.90;;;1.50;;
65822;SDS011;52585;47.566;19.056;2022-07-06T14:48:37;3.70;;;1.40;;
65822;SDS011;52585;47.566;19.056;2022-07-06T14:51:06;3.10;;;1.20;;
65822;SDS011;52585;47.566;19.056;2022-07-06T14:53:33;2.10;;;1.40;;
65822;SDS011;52585;47.566;19.056;2022-07-06T14:56:01;1.50;;;1.40;;
65822;SDS011;52585;47.566;19.056;2022-07-06T14:58:28;1.70;;;1.00;;
65822;SDS011;52585;47.566;19.056;2022-07-06T15:00:55;6.90;;;1.20;;
65822;SDS011;52585;47.566;19.056;2022-07-06T15:03:22;1.30;;;1.20;;